map of LOE home
LOE - Airport
Location
City:  Loei, Loei, Thailand
ICAO:VTUL
IATA:LOE

Details
Type:Airport (Aerodrome, Airfield)
Latitude:1726'21"N (17.439133)
Longitude:10143'19"E (101.722064)
Datum:WGS 1984
Elevation:860 ft (262 m)
Variation:0.81W (WMM2015 magnetic declination)
-0.00 annual change
Runways:1
Longest:6890 × 148 ft (2100 × 45 m), paved

Time
Time Zone:UTC+7
Local Time:

Weather
METAR:VTUL 150800Z VRB03KT 9999 FEW030 29/17 Q1015 NOSIG
TAF:VTUL 150500Z 1506/1606 06005KT 9999 FEW030
BECMG 1511/1513 VRB02KT 8000 NSC
BECMG 1601/1603 08005KT 9999 FEW025

Related Locations
Nearby:
Farthest:SJA: 12189 mi / 19617 km
San Juan de Marcona [San Juan de Marcona Airport], ICA, PE

Find:

   beyond  
but within

Other Information
Maps:
NOTAMs:
Links:
Sources:

  
  • flag of Thailand
  

Sectional Chart

Flight Planning
at skyvector.com

Satellite Image

Google Maps Satellite view

 

Copyright © 2004-2018 Karl L. Swartz. All rights reserved.
The Great Circle Mapper name and logo are trademarks of the Great Circle Mapper.
All other trademarks mentioned herein belong to their respective owners.
Please see credits for attibutions and further copyright information.

  Follow gcmap on Facebook Follow gcmap on Twitter Follow gcmap on Google+ GCmap on LinkedIn

hCard Microformat

Geo Microformat